Time;durP1;ratioP1;P1;durP2;ratioP2;P2;SDS_P1;SDS_P2;PMS_P1;PMS_P2;Temp;Humidity;BMP_temperature;BMP_pressure;BME280_temperature;BME280_humidity;BME280_pressure;Samples;Min_cycle;Max_cycle;Signal;HPM_P1;HPM_P2
2023/04/20 00:01:35;;;;;;;4.30;2.60;;;5.70;98.20;;;6.43;90.11;98254.81;5078387;28;21138;-76
2023/04/20 00:04:04;;;;;;;3.20;2.30;;;5.60;98.00;;;6.43;90.16;98256.59;5078569;28;21335;-76
2023/04/20 00:06:34;;;;;;;2.60;1.70;;;5.60;98.00;;;6.39;89.56;98248.31;5078723;28;20462;-76
2023/04/20 00:09:04;;;;;;;2.20;1.70;;;5.60;97.90;;;6.32;90.08;98244.69;5077477;28;20467;-76
2023/04/20 00:11:33;;;;;;;4.00;1.90;;;5.50;98.10;;;6.34;90.05;98247.97;5077865;28;20456;-76
2023/04/20 00:14:03;;;;;;;3.07;1.80;;;5.50;97.80;;;6.24;90.10;98236.88;5077280;28;20475;-76
2023/04/20 00:16:34;;;;;;;1.93;1.70;;;5.50;97.90;;;6.28;90.83;98234.81;5079172;28;20472;-76
2023/04/20 00:19:06;;;;;;;7.13;1.90;;;5.50;98.00;;;6.11;90.17;98228.69;5075711;28;20470;-76
2023/04/20 00:21:37;;;;;;;2.27;1.80;;;5.40;98.10;;;6.01;91.27;98233.19;5075523;28;20463;-76
2023/04/20 00:24:08;;;;;;;4.10;2.00;;;5.30;98.20;;;6.09;91.58;98225.44;5075800;28;20521;-76
2023/04/20 00:26:38;;;;;;;3.30;1.90;;;5.30;98.50;;;6.08;91.88;98218.63;5075996;28;20470;-76
2023/04/20 00:29:07;;;;;;;7.70;2.27;;;5.30;98.40;;;6.06;92.08;98212.78;5076728;28;20955;-76
2023/04/20 00:31:39;;;;;;;11.00;1.67;;;5.30;98.50;;;6.00;91.89;98208.22;5076378;28;20467;-76
2023/04/20 00:34:08;;;;;;;3.70;1.63;;;5.30;98.60;;;6.03;92.66;98203.53;5076397;28;21186;-76
2023/04/20 00:36:38;;;;;;;1.87;1.70;;;5.20;98.50;;;6.01;93.42;98204.63;5075121;28;20483;-76
2023/04/20 00:39:09;;;;;;;2.13;1.90;;;5.20;98.70;;;5.96;93.30;98201.69;5076229;28;20958;-76
2023/04/20 00:41:39;;;;;;;3.70;1.80;;;5.20;98.70;;;5.96;92.94;98196.50;5074372;28;20466;-76
2023/04/20 00:44:12;;;;;;;3.30;1.50;;;5.20;98.70;;;5.89;93.26;98198.09;5076162;28;20581;-76
2023/04/20 00:46:42;;;;;;;3.03;2.27;;;5.10;98.80;;;5.86;93.50;98198.41;5077151;28;20549;-76
2023/04/20 00:49:12;;;;;;;6.67;2.30;;;5.10;98.90;;;5.72;93.82;98188.56;5077915;28;20468;-76
2023/04/20 00:51:41;;;;;;;3.13;2.30;;;5.10;98.70;;;5.73;94.60;98185.78;5077619;28;20825;-76
2023/04/20 00:54:12;;;;;;;2.77;1.83;;;5.00;99.30;;;5.73;94.69;98184.97;5078435;28;20546;-76
2023/04/20 00:56:43;;;;;;;4.37;1.90;;;4.90;98.80;;;5.64;94.66;98185.91;5078840;28;20458;-77
2023/04/20 00:59:13;;;;;;;2.80;2.00;;;4.90;99.10;;;5.59;95.36;98174.19;5076728;28;20477;-76
2023/04/20 01:01:46;;;;;;;5.73;2.37;;;4.90;99.10;;;5.56;95.01;98171.91;5075594;28;20475;-76
2023/04/20 01:04:17;;;;;;;2.53;2.10;;;4.80;99.10;;;5.54;95.78;98171.25;5074462;28;20816;-76
2023/04/20 01:06:47;;;;;;;2.80;2.00;;;4.80;99.20;;;5.57;96.13;98176.13;5077614;28;20468;-77
2023/04/20 01:09:17;;;;;;;3.10;2.00;;;4.80;99.40;;;5.58;95.90;98164.81;5074679;28;20546;-76
2023/04/20 01:11:48;;;;;;;4.73;2.13;;;4.90;99.30;;;5.59;95.44;98163.00;5074672;28;20478;-76
2023/04/20 01:14:18;;;;;;;4.73;2.40;;;4.80;99.30;;;5.54;95.58;98155.69;5077178;28;20466;-76
2023/04/20 01:16:50;;;;;;;3.27;1.90;;;4.70;99.50;;;5.56;96.44;98156.34;5075740;28;20458;-76
2023/04/20 01:19:21;;;;;;;2.57;2.10;;;4.70;99.30;;;5.53;96.31;98154.06;5076355;28;20570;-77
2023/04/20 01:21:51;;;;;;;3.47;1.83;;;4.70;99.20;;;5.50;96.22;98149.19;5077390;28;20893;-76
2023/04/20 01:24:22;;;;;;;3.03;1.90;;;4.70;99.40;;;5.43;96.07;98148.16;5078418;28;20518;-76
2023/04/20 01:26:52;;;;;;;3.37;2.10;;;4.70;99.20;;;5.44;96.39;98149.81;5078680;28;20465;-76
2023/04/20 01:29:21;;;;;;;1.90;1.73;;;4.60;99.40;;;5.42;96.48;98145.72;5077293;28;20555;-76
2023/04/20 01:31:52;;;;;;;3.40;2.40;;;4.60;99.40;;;5.35;97.06;98142.09;5077605;28;20470;-76
2023/04/20 01:34:23;;;;;;;3.93;2.20;;;4.60;99.90;;;5.35;97.02;98137.72;5076889;28;20549;-76
2023/04/20 01:36:52;;;;;;;3.37;1.93;;;4.50;99.70;;;5.27;97.45;98132.50;5077057;28;20483;-75
2023/04/20 01:39:24;;;;;;;2.50;2.10;;;4.50;99.70;;;5.23;97.79;98130.34;5076522;28;20517;-76
2023/04/20 01:41:53;;;;;;;2.77;2.00;;;4.50;99.80;;;5.18;97.51;98128.22;5076744;28;20460;-76
2023/04/20 01:44:22;;;;;;;2.30;1.90;;;4.40;99.60;;;5.13;98.71;98124.47;5077020;28;20490;-76
2023/04/20 01:46:52;;;;;;;4.60;1.87;;;4.40;99.90;;;5.10;98.63;98125.59;5077659;28;21440;-76
2023/04/20 01:49:20;;;;;;;5.23;2.00;;;4.40;99.90;;;5.06;98.69;98122.47;5078445;28;20451;-76
2023/04/20 01:51:50;;;;;;;2.73;1.63;;;4.30;99.60;;;5.05;98.81;98112.25;5080902;28;21676;-76
2023/04/20 01:54:18;;;;;;;2.30;1.63;;;4.30;99.90;;;5.02;99.44;98109.97;5079212;28;20557;-76
2023/04/20 01:56:48;;;;;;;4.93;2.70;;;4.30;99.90;;;4.98;99.33;98108.63;5078636;28;20540;-76
2023/04/20 01:59:16;;;;;;;2.10;1.83;;;4.20;99.90;;;4.98;100.00;98108.63;5080781;28;20487;-76
2023/04/20 02:01:45;;;;;;;1.70;1.60;;;4.20;99.90;;;5.03;100.00;98109.00;5078198;28;20456;-76
2023/04/20 02:04:14;;;;;;;7.73;2.17;;;4.20;99.90;;;4.97;99.90;98110.41;5079711;28;20834;-76
2023/04/20 02:06:43;;;;;;;4.67;2.30;;;4.20;99.90;;;4.97;100.00;98110.41;5078695;28;20459;-78
2023/04/20 02:09:13;;;;;;;3.90;1.97;;;4.20;99.90;;;4.96;100.00;98111.34;5078847;28;20706;-76
2023/04/20 02:11:43;;;;;;;4.70;2.30;;;4.20;99.90;;;4.92;99.96;98111.84;5080246;28;20460;-76
2023/04/20 02:14:15;;;;;;;1.80;1.70;;;4.20;99.90;;;4.88;100.00;98102.72;5077866;28;20593;-76
2023/04/20 02:16:45;;;;;;;5.33;2.13;;;4.10;99.90;;;4.84;100.00;98114.34;5080485;28;20968;-76
2023/04/20 02:19:16;;;;;;;4.13;2.27;;;4.10;99.90;;;4.84;100.00;98111.75;5079945;28;20521;-76
2023/04/20 02:21:47;;;;;;;5.50;2.10;;;4.10;99.90;;;4.80;100.00;98100.88;5079146;28;20536;-77
2023/04/20 02:24:17;;;;;;;4.50;2.13;;;4.10;99.90;;;4.80;100.00;98097.47;5079904;28;20479;-77
2023/04/20 02:26:48;;;;;;;1.73;1.63;;;4.00;99.90;;;4.80;100.00;98098.28;5080638;28;20486;-76
2023/04/20 02:29:20;;;;;;;1.97;1.60;;;4.00;99.90;;;4.78;100.00;98091.63;5080858;28;20475;-76
2023/04/20 02:31:50;;;;;;;3.77;2.23;;;4.00;99.90;;;4.72;100.00;98089.66;5078916;28;20469;-76
2023/04/20 02:34:19;;;;;;;2.53;2.07;;;3.90;99.90;;;4.63;100.00;98080.97;5080607;28;20466;-76
2023/04/20 02:36:49;;;;;;;1.90;1.80;;;3.90;99.90;;;4.62;100.00;98073.38;5079734;28;20563;-76
2023/04/20 02:39:19;;;;;;;2.50;1.70;;;3.90;99.90;;;4.64;100.00;98076.63;5080249;28;20535;-76
2023/04/20 02:41:50;;;;;;;4.00;2.10;;;3.90;99.90;;;4.53;100.00;98065.53;5078836;28;20459;-76
2023/04/20 02:44:22;;;;;;;4.60;2.23;;;3.80;99.90;;;4.49;100.00;98069.38;5081020;28;20610;-76
2023/04/20 02:46:52;;;;;;;6.93;2.00;;;3.80;99.90;;;4.55;100.00;98063.59;5080435;28;20455;-76
2023/04/20 02:49:21;;;;;;;2.90;2.47;;;3.80;99.90;;;4.56;100.00;98067.00;5080921;28;20468;-76
2023/04/20 02:51:51;;;;;;;4.60;2.50;;;3.90;99.90;;;4.53;100.00;98070.72;5076724;28;20474;-76
2023/04/20 02:54:21;;;;;;;3.67;2.10;;;3.80;99.90;;;4.43;100.00;98067.38;5078680;28;20464;-76
2023/04/20 02:56:51;;;;;;;3.40;2.00;;;3.80;99.90;;;4.49;100.00;98066.78;5078192;28;20456;-76
2023/04/20 02:59:22;;;;;;;2.83;1.90;;;3.80;99.90;;;4.47;100.00;98060.97;5077995;28;20550;-76
2023/04/20 03:01:52;;;;;;;3.27;2.03;;;3.70;99.90;;;4.45;100.00;98062.88;5076802;28;20463;-76
2023/04/20 03:04:21;;;;;;;4.03;2.33;;;3.70;99.90;;;4.44;100.00;98056.06;5077721;28;20492;-76
2023/04/20 03:06:52;;;;;;;6.20;2.10;;;3.60;99.90;;;4.45;100.00;98057.69;5079605;28;20817;-76
2023/04/20 03:09:22;;;;;;;4.20;2.03;;;3.70;99.90;;;4.33;100.00;98056.28;5078127;28;20467;-76
2023/04/20 03:11:52;;;;;;;8.57;1.97;;;3.60;99.90;;;4.31;100.00;98055.59;5077521;28;20499;-76
2023/04/20 03:14:24;;;;;;;5.87;2.23;;;3.50;99.90;;;4.36;100.00;98045.63;5080254;28;20459;-76
2023/04/20 03:16:55;;;;;;;4.00;2.20;;;3.60;99.90;;;4.32;100.00;98052.06;5078527;28;20473;-76
2023/04/20 03:19:24;;;;;;;3.80;2.30;;;3.60;99.90;;;4.23;100.00;98049.56;5077088;28;20460;-76
2023/04/20 03:21:54;;;;;;;2.37;2.07;;;3.50;99.90;;;4.24;100.00;98041.63;5079427;28;20536;-77
2023/04/20 03:24:24;;;;;;;2.63;1.80;;;3.50;99.90;;;4.24;100.00;98051.97;5078522;28;20473;-76
2023/04/20 03:26:54;;;;;;;4.63;2.20;;;3.50;99.90;;;4.26;100.00;98042.31;5081161;28;20983;-76
2023/04/20 03:29:26;;;;;;;2.20;1.80;;;3.50;99.90;;;4.25;100.00;98045.03;5081109;28;20500;-77
2023/04/20 03:31:57;;;;;;;4.40;2.23;;;3.40;99.90;;;4.17;100.00;98040.59;5078404;28;20894;-76
2023/04/20 03:34:26;;;;;;;2.40;1.90;;;3.40;99.90;;;4.16;100.00;98045.94;5081034;28;20455;-76
2023/04/20 03:36:57;;;;;;;2.87;2.13;;;3.40;99.90;;;4.11;100.00;98043.78;5078244;28;20491;-76
2023/04/20 03:39:27;;;;;;;3.70;2.30;;;3.40;99.90;;;4.14;100.00;98035.72;5079750;28;20820;-76
2023/04/20 03:41:58;;;;;;;2.43;2.23;;;3.40;99.90;;;4.13;100.00;98041.84;5079107;28;20936;-76
2023/04/20 03:44:28;;;;;;;2.47;2.03;;;3.40;99.90;;;4.10;100.00;98036.97;5078734;28;20802;-76
2023/04/20 03:46:58;;;;;;;6.40;1.90;;;3.40;99.90;;;4.08;100.00;98033.72;5079035;28;20463;-76
2023/04/20 03:49:30;;;;;;;3.20;2.27;;;3.40;99.90;;;4.03;100.00;98028.16;5077641;28;20469;-75
2023/04/20 03:52:00;;;;;;;7.93;2.47;;;3.30;99.90;;;3.96;100.00;98025.34;5075205;28;20490;-76
2023/04/20 03:54:30;;;;;;;2.90;1.93;;;3.30;99.90;;;3.87;100.00;98030.59;5075959;28;20466;-76
2023/04/20 03:57:01;;;;;;;2.47;1.77;;;3.30;99.90;;;3.86;100.00;98019.41;5077493;28;21025;-76
2023/04/20 03:59:32;;;;;;;4.10;2.30;;;3.30;99.90;;;3.94;100.00;98022.09;5075794;28;20463;-76
2023/04/20 04:02:04;;;;;;;2.93;2.30;;;3.20;99.90;;;3.82;100.00;98025.84;5075559;28;20467;-76
2023/04/20 04:04:35;;;;;;;2.70;1.83;;;3.20;99.90;;;3.82;100.00;98018.09;5075602;28;20458;-76
2023/04/20 04:07:05;;;;;;;2.57;1.93;;;3.10;99.90;;;3.82;100.00;98025.84;5075263;28;20462;-76
2023/04/20 04:09:35;;;;;;;4.17;2.43;;;3.10;99.90;;;3.84;100.00;98025.72;5079042;28;20547;-75
2023/04/20 04:12:07;;;;;;;2.83;2.20;;;3.10;99.90;;;3.85;100.00;98022.16;5077849;28;21346;-75
2023/04/20 04:14:37;;;;;;;3.97;2.53;;;3.10;99.90;;;3.88;100.00;98027.88;5078051;28;20518;-76
2023/04/20 04:17:07;;;;;;;2.60;2.20;;;3.10;99.90;;;3.89;100.00;98026.06;5077001;28;20968;-75
2023/04/20 04:19:37;;;;;;;4.80;3.27;;;3.10;99.90;;;3.91;100.00;98026.75;5076617;28;20465;-75
2023/04/20 04:22:07;;;;;;;4.00;2.67;;;3.20;99.90;;;3.94;100.00;98016.94;5078093;28;20512;-75
2023/04/20 04:24:37;;;;;;;3.60;2.60;;;3.20;99.90;;;3.89;100.00;98029.47;5076051;28;20548;-76
2023/04/20 04:27:09;;;;;;;3.37;2.60;;;3.20;99.90;;;3.90;100.00;98019.94;5077359;28;20805;-75
2023/04/20 04:29:41;;;;;;;2.40;1.93;;;3.20;99.90;;;3.90;100.00;98013.00;5075481;28;20494;-76
2023/04/20 04:32:12;;;;;;;2.97;2.37;;;3.20;99.90;;;3.94;100.00;98013.53;5076476;28;20458;-76
2023/04/20 04:34:43;;;;;;;6.30;2.10;;;3.20;99.90;;;3.93;100.00;98009.31;5076597;28;20878;-76
2023/04/20 04:37:13;;;;;;;7.63;2.60;;;3.20;99.90;;;3.94;100.00;98009.16;5076867;28;21110;-76
2023/04/20 04:39:42;;;;;;;8.57;2.60;;;3.20;99.90;;;3.99;100.00;98009.53;5078726;28;20462;-76
2023/04/20 04:42:11;;;;;;;5.63;2.47;;;3.30;99.90;;;4.03;100.00;98004.88;5075322;28;20515;-76
2023/04/20 04:44:42;;;;;;;5.77;2.27;;;3.20;99.90;;;3.99;100.00;98006.16;5078235;28;21014;-76
2023/04/20 04:47:13;;;;;;;3.27;2.10;;;3.30;99.90;;;4.00;100.00;98005.19;5078597;28;20501;-76
2023/04/20 04:49:44;;;;;;;8.10;3.43;;;3.30;99.90;;;4.01;100.00;98004.22;5077362;28;20550;-75
2023/04/20 04:52:14;;;;;;;4.97;3.03;;;3.30;99.90;;;3.97;100.00;98008.88;5076693;28;20459;-76
2023/04/20 04:54:43;;;;;;;4.63;2.70;;;3.20;99.90;;;4.03;100.00;98004.88;5076187;28;20486;-76
2023/04/20 04:57:13;;;;;;;5.30;3.13;;;3.30;99.90;;;4.09;100.00;98003.50;5075823;28;20460;-76
2023/04/20 04:59:45;;;;;;;8.63;2.63;;;3.30;99.90;;;4.15;100.00;97995.13;5074822;28;20461;-76
2023/04/20 05:02:15;;;;;;;2.57;2.20;;;3.40;99.90;;;4.19;100.00;97999.06;5074390;28;20467;-76
2023/04/20 05:04:45;;;;;;;3.50;2.80;;;3.40;99.90;;;4.19;100.00;98002.47;5075852;28;20474;-76
2023/04/20 05:07:16;;;;;;;4.00;2.57;;;3.40;99.90;;;4.19;100.00;98004.22;5078787;28;20509;-75
2023/04/20 05:09:47;;;;;;;7.17;3.53;;;3.50;99.90;;;4.19;100.00;98002.47;5075768;28;20463;-76
2023/04/20 05:12:18;;;;;;;42.07;2.93;;;3.50;99.90;;;4.22;100.00;98007.34;5077069;28;20464;-73
2023/04/20 05:14:49;;;;;;;4.43;2.37;;;3.50;99.90;;;4.24;100.00;98008.00;5077215;28;20521;-76
2023/04/20 05:17:19;;;;;;;3.83;2.50;;;3.50;99.90;;;4.31;100.00;98003.84;5075690;28;21050;-76
2023/04/20 05:19:49;;;;;;;9.33;4.30;;;3.60;99.90;;;4.35;100.00;98002.59;5074641;28;20970;-76
2023/04/20 05:22:19;;;;;;;7.30;2.67;;;3.60;99.90;;;4.34;100.00;97998.38;5075600;28;21076;-76
2023/04/20 05:24:49;;;;;;;3.80;2.40;;;3.60;99.90;;;4.39;100.00;98001.34;5075486;28;20475;-76
2023/04/20 05:27:18;;;;;;;2.93;2.57;;;3.60;99.90;;;4.39;100.00;98003.09;5076148;28;20503;-77
2023/04/20 05:29:49;;;;;;;4.97;2.70;;;3.60;99.90;;;4.43;100.00;98000.09;5075011;28;20477;-76
2023/04/20 05:32:20;;;;;;;3.57;2.73;;;3.70;99.90;;;4.46;100.00;98009.31;5075062;28;20466;-76
2023/04/20 05:34:49;;;;;;;3.27;2.80;;;3.70;99.90;;;4.46;100.00;98004.13;5075203;28;20462;-75
2023/04/20 05:37:18;;;;;;;6.33;3.30;;;3.70;99.90;;;4.46;100.00;98012.72;5074431;28;20509;-75
2023/04/20 05:39:48;;;;;;;3.87;2.83;;;3.70;99.90;;;4.52;100.00;98016.47;5074566;28;20468;-76
2023/04/20 05:42:17;;;;;;;5.87;3.20;;;3.80;99.90;;;4.56;100.00;98008.28;5075066;28;20460;-76
2023/04/20 05:44:49;;;;;;;5.07;2.90;;;3.80;99.90;;;4.56;100.00;98010.84;5076293;28;20491;-76
2023/04/20 05:47:19;;;;;;;4.47;2.83;;;3.80;99.90;;;4.55;100.00;98005.81;5075232;28;20530;-73
2023/04/20 05:49:48;;;;;;;5.17;2.83;;;3.90;99.90;;;4.60;100.00;98013.16;5074072;28;21336;-76
2023/04/20 05:52:19;;;;;;;4.13;2.67;;;3.90;99.90;;;4.62;100.00;98006.06;5072912;28;20581;-76
2023/04/20 05:54:49;;;;;;;6.40;3.30;;;3.90;99.90;;;4.61;100.00;98005.25;5076415;28;20464;-75
2023/04/20 05:57:19;;;;;;;3.00;2.30;;;4.00;99.90;;;4.63;100.00;98007.66;5072782;28;20534;-75
2023/04/20 05:59:50;;;;;;;4.10;2.40;;;4.00;99.90;;;4.68;100.00;98011.44;5074035;28;20468;-76
2023/04/20 06:02:20;;;;;;;5.07;3.30;;;4.00;99.90;;;4.71;100.00;98002.56;5077359;28;20473;-76
2023/04/20 06:04:51;;;;;;;9.70;3.50;;;4.00;99.90;;;4.74;100.00;98012.59;5075850;28;20805;-76
2023/04/20 06:07:20;;;;;;;6.80;2.73;;;4.00;99.90;;;4.73;100.00;98011.78;5077797;28;20538;-75
2023/04/20 06:09:50;;;;;;;5.53;3.20;;;4.10;99.90;;;4.79;100.00;98012.97;5075581;28;20455;-76
2023/04/20 06:12:18;;;;;;;5.90;2.67;;;4.10;99.90;;;4.83;100.00;98006.50;5077124;28;20513;-75
2023/04/20 06:14:50;;;;;;;3.30;2.97;;;4.10;99.90;;;4.85;100.00;98012.38;5075822;28;20502;-76
2023/04/20 06:17:20;;;;;;;6.40;3.20;;;4.20;99.90;;;4.90;100.00;98004.94;5077039;28;21061;-75
2023/04/20 06:19:49;;;;;;;5.10;3.53;;;4.20;99.90;;;4.96;100.00;98005.13;5074553;28;21018;-76
2023/04/20 06:22:19;;;;;;;7.60;3.40;;;4.20;99.90;;;5.01;100.00;98002.09;5075258;28;20452;-76
2023/04/20 06:24:49;;;;;;;6.00;3.43;;;4.30;99.90;;;5.05;100.00;98001.66;5078265;28;20486;-75
2023/04/20 06:27:19;;;;;;;5.47;2.93;;;4.50;99.90;;;5.13;100.00;97989.69;5074701;28;20488;-76
2023/04/20 06:29:51;;;;;;;4.97;2.80;;;4.40;99.90;;;5.21;100.00;97989.72;5075536;28;20491;-76
2023/04/20 06:32:21;;;;;;;11.93;3.40;;;4.40;99.90;;;5.25;100.00;97991.84;5074138;28;20456;-76
2023/04/20 06:34:52;;;;;;;3.20;2.83;;;4.50;99.90;;;5.31;100.00;97988.63;5073350;28;20468;-76
2023/04/20 06:37:21;;;;;;;9.60;3.77;;;4.50;99.90;;;5.38;100.00;97989.63;5076467;28;20478;-75
2023/04/20 06:39:54;;;;;;;4.80;3.20;;;4.60;99.90;;;5.41;100.00;97984.16;5078017;28;20552;-75
2023/04/20 06:42:26;;;;;;;8.60;3.80;;;4.70;99.90;;;5.48;100.00;97990.31;5075952;28;20477;-76
2023/04/20 06:44:57;;;;;;;5.70;3.50;;;4.80;99.90;;;5.57;100.00;97989.41;5079189;28;21240;-76
2023/04/20 06:47:30;;;;;;;11.20;4.37;;;4.90;99.90;;;5.62;100.00;97988.13;5077533;28;21216;-76
2023/04/20 06:49:59;;;;;;;5.43;2.73;;;4.80;99.90;;;5.68;100.00;97987.50;5077753;28;26307;-75
2023/04/20 06:52:30;;;;;;;4.70;3.43;;;4.90;99.90;;;5.72;100.00;97987.03;5077872;28;20526;-75
2023/04/20 06:55:00;;;;;;;5.10;3.43;;;4.90;99.90;;;5.81;100.00;97987.84;5076680;28;20540;-75
2023/04/20 06:57:37;;;;;;;5.10;3.30;;;5.00;99.90;;;5.87;100.00;97989.84;5076548;28;20524;-76
2023/04/20 07:00:10;;;;;;;116.10;50.03;;;5.10;99.90;;;5.92;100.00;97983.22;5072926;28;20962;-76
2023/04/20 07:02:46;;;;;;;7.00;3.80;;;5.20;99.90;;;5.94;100.00;97983.03;5073960;28;20462;-75
2023/04/20 07:05:16;;;;;;;7.20;3.60;;;5.30;99.90;;;5.96;100.00;97986.31;5078123;28;20466;-75
2023/04/20 07:07:45;;;;;;;5.60;3.23;;;5.30;99.90;;;6.00;100.00;97979.81;5078632;28;21005;-75
2023/04/20 07:10:15;;;;;;;6.67;3.87;;;5.30;99.90;;;6.05;100.00;97985.34;5079906;28;20517;-75
2023/04/20 07:12:45;;;;;;;6.47;3.70;;;5.30;99.90;;;6.11;100.00;97986.50;5077748;28;20478;-75
2023/04/20 07:15:15;;;;;;;5.40;3.20;;;5.40;99.90;;;6.16;100.00;97987.63;5076751;28;20474;-75
2023/04/20 07:17:43;;;;;;;9.70;3.07;;;5.50;99.90;;;6.20;100.00;97988.94;5080455;28;20455;-75
2023/04/20 07:20:14;;;;;;;5.93;3.50;;;5.50;99.90;;;6.23;100.00;97990.38;5079631;28;21010;-75
2023/04/20 07:22:44;;;;;;;5.23;3.70;;;5.50;99.90;;;6.22;100.00;97988.75;5076694;28;20494;-76
2023/04/20 07:25:14;;;;;;;5.57;3.20;;;5.60;99.90;;;6.23;100.00;97986.00;5078461;28;20455;-75
2023/04/20 07:27:45;;;;;;;5.93;3.33;;;5.60;99.90;;;6.25;100.00;97986.66;5077603;28;21155;-75
2023/04/20 07:30:16;;;;;;;7.03;3.87;;;5.60;99.90;;;6.16;100.00;97987.63;5077934;28;20466;-75
2023/04/20 07:32:46;;;;;;;6.23;4.63;;;5.60;99.90;;;6.22;100.00;97986.97;5076704;28;20474;-76
2023/04/20 07:35:16;;;;;;;7.83;3.90;;;5.60;99.90;;;6.25;100.00;97989.25;5076789;28;20504;-75
2023/04/20 07:37:46;;;;;;;8.93;3.90;;;5.60;99.90;;;6.27;100.00;97984.72;5076453;28;20566;-75
2023/04/20 07:40:16;;;;;;;8.87;3.97;;;5.60;99.90;;;6.31;100.00;97993.81;5078998;28;20985;-75
2023/04/20 07:42:46;;;;;;;7.23;3.30;;;5.60;99.90;;;6.29;100.00;97990.56;5078613;28;20549;-76
2023/04/20 07:45:18;;;;;;;5.40;3.73;;;5.70;99.90;;;6.35;100.00;97989.13;5076879;28;21006;-75
2023/04/20 07:47:50;;;;;;;6.10;4.30;;;5.60;99.90;;;6.39;100.00;97991.22;5078040;28;20499;-75
2023/04/20 07:50:20;;;;;;;8.97;4.20;;;5.70;99.90;;;6.41;100.00;97988.47;5078906;28;20542;-75
2023/04/20 07:52:51;;;;;;;11.50;6.60;;;5.70;99.90;;;6.37;100.00;97992.34;5079544;28;21309;-75
2023/04/20 07:55:21;;;;;;;7.30;4.10;;;5.80;99.90;;;6.38;100.00;97984.41;5075288;28;20467;-75
2023/04/20 07:57:51;;;;;;;6.23;4.03;;;5.80;99.90;;;6.43;100.00;97992.50;5056949;28;20543;-75
2023/04/20 08:00:25;;;;;;;5.70;3.80;;;5.90;99.90;;;6.42;100.00;97988.28;5076699;28;20564;-75
2023/04/20 08:02:55;;;;;;;7.10;3.90;;;5.80;99.90;;;6.43;100.00;97986.50;5077665;28;20973;-76
2023/04/20 08:05:25;;;;;;;5.33;3.97;;;5.80;99.90;;;6.39;100.00;97980.81;5078878;28;20464;-75
2023/04/20 08:07:57;;;;;;;7.17;3.50;;;5.80;99.90;;;6.41;100.00;97984.09;5076446;28;20561;-75
2023/04/20 08:10:28;;;;;;;8.40;4.37;;;5.80;99.90;;;6.37;100.00;97987.97;5078991;28;20462;-75
2023/04/20 08:12:58;;;;;;;10.63;4.67;;;5.80;99.90;;;6.37;100.00;97985.38;5076143;28;21201;-75
2023/04/20 08:15:31;;;;;;;16.63;4.70;;;5.80;99.90;;;6.35;100.00;97979.50;5078604;28;20597;-75
2023/04/20 08:18:04;;;;;;;5.93;3.57;;;5.70;99.90;;;6.38;100.00;97975.81;5078540;28;20539;-75
2023/04/20 08:20:36;;;;;;;8.30;4.10;;;5.80;99.90;;;6.38;100.00;97973.19;5078585;28;20464;-75
2023/04/20 08:23:06;;;;;;;11.23;4.53;;;5.80;99.90;;;6.45;100.00;97979.38;5077768;28;20459;-75
2023/04/20 08:25:35;;;;;;;5.77;3.97;;;5.80;99.90;;;6.50;100.00;97972.69;5078337;28;20464;-75
2023/04/20 08:28:07;;;;;;;8.70;4.47;;;5.80;99.90;;;6.61;100.00;97965.56;5078020;28;20496;-75
2023/04/20 08:30:45;;;;;;;9.63;5.07;;;5.90;99.90;;;6.66;100.00;97965.88;5077769;28;20962;-75
2023/04/20 08:33:16;;;;;;;7.90;4.50;;;5.90;99.90;;;6.69;100.00;97955.16;5076245;28;20467;-75
2023/04/20 08:35:47;;;;;;;11.57;4.60;;;6.00;99.90;;;6.72;100.00;97965.22;5076519;28;20487;-75
2023/04/20 08:38:17;;;;;;;5.30;4.00;;;6.10;99.90;;;6.68;100.00;97963.91;5076783;28;20550;-75
2023/04/20 08:40:59;;;;;;;9.80;4.53;;;6.10;99.90;;;6.70;100.00;97965.38;5075101;28;20542;-75
2023/04/20 08:43:29;;;;;;;5.60;3.90;;;6.00;99.90;;;6.78;100.00;97964.56;5078736;28;20452;-75
2023/04/20 08:46:01;;;;;;;5.40;4.27;;;6.10;99.90;;;6.79;100.00;97961.81;5076852;28;20972;-75
2023/04/20 08:48:37;;;;;;;11.50;5.20;;;6.10;99.90;;;6.90;100.00;97974.47;5076857;28;20501;-75
2023/04/20 08:51:07;;;;;;;7.63;5.20;;;6.20;99.90;;;6.96;100.00;97963.38;5079285;28;20448;-75
2023/04/20 08:53:37;;;;;;;11.90;5.70;;;6.30;99.90;;;7.00;100.00;97969.06;5076071;28;20460;-76
2023/04/20 08:56:09;;;;;;;8.10;5.63;;;6.40;99.90;;;7.07;100.00;97976.03;5075995;28;20463;-75
2023/04/20 08:58:41;;;;;;;11.30;5.37;;;6.50;99.90;;;7.03;100.00;97976.53;5074975;28;20468;-75
2023/04/20 09:01:14;;;;;;;10.20;5.63;;;6.40;99.90;;;7.04;100.00;97970.38;5077519;28;21520;-75
2023/04/20 09:03:51;;;;;;;8.50;4.27;;;6.40;99.90;;;7.14;100.00;97967.56;5075051;28;20465;-75
2023/04/20 09:06:22;;;;;;;6.90;4.67;;;6.50;99.90;;;7.13;100.00;97978.94;5072645;28;20459;-75
2023/04/20 09:08:53;;;;;;;6.30;5.10;;;6.50;99.90;;;7.14;100.00;97963.19;5074260;28;20487;-75
2023/04/20 09:11:26;;;;;;;7.27;5.13;;;6.60;99.90;;;7.18;100.00;97966.25;5073118;28;20973;-75
2023/04/20 09:14:03;;;;;;;8.63;4.97;;;6.60;99.90;;;7.12;100.00;97962.53;5075833;28;20466;-75
2023/04/20 09:16:34;;;;;;;7.03;5.30;;;6.60;99.90;;;7.09;100.00;97966.28;5076179;28;20521;-75
2023/04/20 09:19:04;;;;;;;7.43;4.47;;;6.60;99.90;;;7.06;100.00;97965.78;5075267;28;20459;-75
2023/04/20 09:21:37;;;;;;;8.30;4.50;;;6.60;99.90;;;7.06;100.00;97963.19;5073951;28;20475;-76
2023/04/20 09:24:09;;;;;;;7.63;3.97;;;6.50;99.90;;;7.06;100.00;97971.00;5075139;28;20534;-75
2023/04/20 09:26:38;;;;;;;5.70;4.27;;;6.60;99.90;;;7.05;100.00;97964.16;5073881;28;20573;-75
2023/04/20 09:29:17;;;;;;;6.43;4.60;;;6.40;99.90;;;7.05;100.00;97964.97;5075091;28;20489;-75
2023/04/20 09:31:52;;;;;;;9.03;5.53;;;6.50;99.90;;;7.06;100.00;97966.63;5074858;28;20516;-76
2023/04/20 09:34:24;;;;;;;8.20;5.33;;;6.50;99.90;;;7.03;100.00;97969.53;5076540;28;20464;-75
2023/04/20 09:36:54;;;;;;;7.27;4.90;;;6.40;99.90;;;7.07;100.00;97970.84;5076009;28;20899;-75
2023/04/20 09:39:25;;;;;;;6.63;5.10;;;6.40;99.90;;;7.17;100.00;97969.84;5075731;28;20464;-75
2023/04/20 09:42:04;;;;;;;9.47;4.40;;;6.50;99.90;;;7.17;100.00;97970.66;5075971;28;20467;-75
2023/04/20 09:44:37;;;;;;;9.07;5.33;;;6.60;99.90;;;7.23;100.00;97966.56;5076864;28;20463;-75
2023/04/20 09:47:16;;;;;;;6.33;4.60;;;6.60;99.90;;;7.22;100.00;97973.53;5076815;28;20463;-75
2023/04/20 09:49:46;;;;;;;6.80;4.10;;;6.70;99.90;;;7.25;100.00;97962.81;5076598;28;21210;-75
2023/04/20 09:52:18;;;;;;;7.30;4.50;;;6.60;99.90;;;7.31;100.00;97967.34;5073519;28;20460;-75
2023/04/20 09:54:51;;;;;;;7.10;5.07;;;6.70;99.90;;;7.38;100.00;97965.69;5073911;28;20514;-75
2023/04/20 09:57:20;;;;;;;7.07;5.37;;;6.70;99.90;;;7.40;100.00;97966.31;5073679;28;20465;-75
2023/04/20 09:59:52;;;;;;;7.07;4.33;;;6.80;99.90;;;7.42;100.00;97967.00;5074702;28;20451;-75
2023/04/20 10:02:23;;;;;;;5.90;4.70;;;6.90;99.90;;;7.32;100.00;97971.59;5074764;28;20459;-75
2023/04/20 10:04:55;;;;;;;6.57;4.70;;;6.80;99.90;;;7.31;100.00;97964.75;5077532;28;20474;-75
2023/04/20 10:07:26;;;;;;;9.70;5.50;;;6.80;99.90;;;7.28;100.00;97967.69;5074010;28;20513;-75
2023/04/20 10:10:08;;;;;;;6.63;5.37;;;6.80;99.90;;;7.28;100.00;97966.88;5076076;28;20496;-76
2023/04/20 10:12:52;;;;;;;7.00;4.90;;;6.80;99.90;;;7.23;100.00;97969.97;5079353;28;20502;-75
2023/04/20 10:15:23;;;;;;;6.60;5.03;;;6.80;99.90;;;7.23;100.00;97959.56;5080256;28;21145;-75
2023/04/20 10:17:53;;;;;;;6.10;4.20;;;6.70;99.90;;;7.22;100.00;97952.72;5079869;28;20516;-75
2023/04/20 10:20:27;;;;;;;7.50;4.83;;;6.70;99.90;;;7.26;100.00;97948.81;5078037;28;20511;-74
2023/04/20 10:23:14;;;;;;;14.17;6.10;;;6.70;99.90;;;7.28;100.00;97943.47;5077859;28;20470;-75
2023/04/20 10:25:55;;;;;;;9.20;4.90;;;6.80;99.90;;;7.29;100.00;97927.69;5080650;28;20460;-75
2023/04/20 10:28:25;;;;;;;6.67;4.50;;;6.80;99.90;;;7.33;100.00;97923.75;5079099;28;20489;-75
2023/04/20 10:30:55;;;;;;;7.70;4.60;;;6.80;99.90;;;7.43;100.00;97913.97;5075477;28;20463;-75
2023/04/20 10:33:26;;;;;;;7.33;5.23;;;6.80;99.90;;;7.53;100.00;97916.38;5079799;28;20460;-75
2023/04/20 10:35:58;;;;;;;9.63;4.57;;;6.80;99.90;;;7.60;100.00;97910.28;5076197;28;20540;-75
2023/04/20 10:38:31;;;;;;;8.33;4.90;;;7.00;99.90;;;7.71;100.00;97910.88;5078333;28;20459;-75
2023/04/20 10:41:07;;;;;;;10.27;4.60;;;7.10;99.90;;;7.75;100.00;97899.16;5078017;28;20965;-75
2023/04/20 10:43:40;;;;;;;7.90;4.80;;;7.20;99.90;;;7.76;100.00;97901.59;5078673;28;20481;-75